Clinton, IA

12:07 PM CDT on June 28, 2017 (GMT -0500)
Mayer Farm @ Eagle Point | | Change Station
Active Advisory: Flood Watch Active Notice: Flood Watch

Elev 732 ft 41.89 °N, 90.19 °W | Updated 1 minute ago

Rain
Rain
69.2 °F
Feels Like 69.2 °F
N
0.0
Wind Variable Wind from SSE
Gusts 11.0 mph

Today
High -- | Low -- °F
--% Chance of Precip.
Yesterday
High -- | Low -- °F
Precip. -- in
Pressure 29.87 in
Visibility 10.0 miles
Clouds Mostly Cloudy 1700 ft
Dew Point 66 °F
Humidity 89%
Rainfall 0.44 in
Snow Depth Not available.
5:28 AM 8:40 PM
Waxing Crescent, 27% visible
METAR KCWI 281656Z AUTO 15015G19KT 10SM BKN017 21/19 A2982 RMK AO2 SLP115 T02110189
Pressure 29.87 in
Visibility 10.0 miles
Clouds Mostly Cloudy 1700 ft
Dew Point 66 °F
Humidity 89%
Rainfall 0.44 in
Snow Depth Not available.
5:28 AM 8:40 PM
Waxing Crescent, 27% visible
METAR KCWI 281656Z AUTO 15015G19KT 10SM BKN017 21/19 A2982 RMK AO2 SLP115 T02110189

Get Your Daily Forecast Email!

Thanks for signing up!

Be on the lookout for a verification email in your inbox.

You'll start receiving severe weather alerts in your inbox..

×

10-Day Weather Forecast

Almanac

Astronomy

Jun. 28, 2017 Rise Set
Actual Time
Civil Twilight
Nautical Twilight
Astronomical Twilight
Moon
Length of Visible Light
Length of Day
Tomorrow will be .
, % of the Moon is Illuminated

Today's Extremes

State Highs State Lows

Community

WunderPhotos

Category 6

Welcome to Category 6. This is the collective home for Weather Underground's featured writeups by Dr. Jeff Masters (right), Bob Henson (left), Chris Burt, and other regular contributors.

Nearby

Air Quality

  Air Quality AQ Index Pollutant
Not available.

Snow Depth

Station Depth Elevation

Earthquake Activity

City Distance Mag. Time & Date
Minimum magnitude displayed is 2.5.

Coastal Water Temperatures

Place Temperature

Stations

Nearby Weather Stations

Station Location Temp. Windchill Dew Point Humidity Wind Precip. Elev Updated Type
                   

Watches & Warnings

Flood Watch
Issued: 10:08 AM CDT Jun. 28, 2017 – National Weather Service

The National Weather Service in Des Moines has issued a
* Flood Watch for
the wapsipinicon river near De Witt 4s
* until late Sunday evening.
* At 9:30 am Wednesday the stage was 9.2 feet.
* Flood stage is 11.0 feet.
* Minor flooding is possible.
* Forecast... rise above flood stage midday Thursday... and continue
rising to 11.4 feet Friday morning. Fall below flood stage late
Sunday evening.
* This forecast is based on routed flow from upstream in combination
with forecast rainfall. Consequently there is limited confidence
in the river reaching flood stage.



Lat... Lon 4200 9090 4184 9071 4177 9033 4169 9035
      4171 9080 4185 9090


Bss